Time;durP1;ratioP1;P1;durP2;ratioP2;P2;SDS_P1;SDS_P2;PMS_P1;PMS_P2;Temp;Humidity;BMP_temperature;BMP_pressure;BME280_temperature;BME280_humidity;BME280_pressure;Samples;Min_cycle;Max_cycle;Signal;HPM_P1;HPM_P2
2022/10/21 00:00:40;;;;;;;14.95;2.97;;;;;;;;;;4981271;28;20398;-77
2022/10/21 00:03:05;;;;;;;12.00;2.95;;;;;;;;;;4981048;28;20023;-78
2022/10/21 00:05:31;;;;;;;10.52;2.78;;;;;;;;;;4981567;28;20335;-78
2022/10/21 00:07:57;;;;;;;10.73;2.75;;;;;;;;;;4981119;28;20214;-78
2022/10/21 00:10:23;;;;;;;9.90;2.50;;;;;;;;;;4980813;28;20056;-77
2022/10/21 00:12:48;;;;;;;12.90;2.78;;;;;;;;;;4981431;28;20023;-77
2022/10/21 00:15:13;;;;;;;11.43;2.63;;;;;;;;;;4979661;28;20217;-79
2022/10/21 00:17:42;;;;;;;13.68;2.80;;;;;;;;;;4980049;28;20384;-79
2022/10/21 00:20:10;;;;;;;13.70;2.90;;;;;;;;;;4981447;28;20030;-79
2022/10/21 00:22:36;;;;;;;14.82;2.60;;;;;;;;;;4980820;28;20466;-77
2022/10/21 00:25:01;;;;;;;12.05;2.50;;;;;;;;;;4981124;28;20046;-77
2022/10/21 00:27:27;;;;;;;8.48;2.28;;;;;;;;;;4981087;28;20051;-77
2022/10/21 00:29:52;;;;;;;7.80;2.47;;;;;;;;;;4980738;28;20027;-77
2022/10/21 00:32:18;;;;;;;8.77;2.45;;;;;;;;;;4980808;28;20022;-77
2022/10/21 00:34:43;;;;;;;11.15;2.30;;;;;;;;;;4981297;28;20277;-78
2022/10/21 00:37:09;;;;;;;12.32;2.65;;;;;;;;;;4980685;28;20057;-77
2022/10/21 00:39:36;;;;;;;11.57;2.35;;;;;;;;;;4981209;28;20467;-78
2022/10/21 00:42:03;;;;;;;9.60;2.28;;;;;;;;;;4980640;28;20073;-77
2022/10/21 00:44:29;;;;;;;11.63;2.20;;;;;;;;;;4980657;28;20042;-78
2022/10/21 00:47:05;;;;;;;12.35;2.60;;;;;;;;;;4980204;28;20026;-77
2022/10/21 00:49:44;;;;;;;9.40;2.42;;;;;;;;;;4980924;28;20368;-78
2022/10/21 00:52:16;;;;;;;12.25;2.50;;;;;;;;;;4980176;28;20037;-77
2022/10/21 00:54:43;;;;;;;9.50;2.45;;;;;;;;;;4980975;28;20019;-77
2022/10/21 00:57:09;;;;;;;9.55;2.50;;;;;;;;;;4966847;28;20081;-78
2022/10/21 00:59:39;;;;;;;8.95;2.40;;;;;;;;;;4984103;28;20045;-77
2022/10/21 01:02:05;;;;;;;8.90;2.08;;;;;;;;;;4983995;28;20122;-78
2022/10/21 01:04:31;;;;;;;6.78;1.98;;;;;;;;;;4984461;28;20060;-77
2022/10/21 01:06:56;;;;;;;10.75;2.08;;;;;;;;;;4983879;28;20494;-78
2022/10/21 01:09:24;;;;;;;13.05;2.47;;;;;;;;;;4984224;28;20095;-78
2022/10/21 01:11:50;;;;;;;11.57;2.63;;;;;;;;;;4967365;28;20187;-78
2022/10/21 01:14:30;;;;;;;11.73;2.05;;;;;;;;;;4983898;28;20336;-78
2022/10/21 01:17:01;;;;;;;8.18;2.17;;;;;;;;;;4966304;28;20126;-77
2022/10/21 01:19:33;;;;;;;13.18;2.30;;;;;;;;;;4983195;28;20078;-78
2022/10/21 01:22:13;;;;;;;12.75;2.38;;;;;;;;;;4984082;28;20735;-78
2022/10/21 01:25:14;;;;;;;7.45;2.08;;;;;;;;;;4982883;28;20036;-77
2022/10/21 01:27:54;;;;;;;12.52;2.30;;;;;;;;;;4962368;28;20093;-77
2022/10/21 01:30:41;;;;;;;10.23;2.25;;;;;;;;;;4984320;28;20022;-78
2022/10/21 01:33:12;;;;;;;11.88;2.38;;;;;;;;;;4983983;28;20422;-78
2022/10/21 01:36:07;;;;;;;11.90;2.50;;;;;;;;;;4983394;28;20031;-78
2022/10/21 01:38:41;;;;;;;10.23;2.20;;;;;;;;;;4982976;28;20027;-77
2022/10/21 01:41:23;;;;;;;13.90;2.58;;;;;;;;;;4984999;28;20078;-77
2022/10/21 01:44:01;;;;;;;11.40;2.63;;;;;;;;;;4983851;28;20051;-77
2022/10/21 01:46:30;;;;;;;15.60;2.50;;;;;;;;;;4984084;28;20019;-78
2022/10/21 01:49:01;;;;;;;11.27;2.53;;;;;;;;;;4983517;28;20030;-77
2022/10/21 01:51:28;;;;;;;12.20;2.33;;;;;;;;;;4983074;28;20043;-77
2022/10/21 01:54:00;;;;;;;12.85;2.50;;;;;;;;;;4965451;28;20027;-77
2022/10/21 01:56:28;;;;;;;8.10;2.05;;;;;;;;;;4960788;28;20513;-78
2022/10/21 01:58:54;;;;;;;11.10;2.30;;;;;;;;;;4955796;28;20504;-77
2022/10/21 02:01:21;;;;;;;10.60;2.22;;;;;;;;;;4973433;28;20035;-78
2022/10/21 02:03:51;;;;;;;8.02;2.15;;;;;;;;;;4973065;28;20039;-77
2022/10/21 02:06:17;;;;;;;10.95;2.15;;;;;;;;;;4973075;28;20141;-78
2022/10/21 02:08:43;;;;;;;7.47;1.92;;;;;;;;;;4973236;28;20609;-77
2022/10/21 02:11:11;;;;;;;11.45;2.30;;;;;;;;;;4979349;28;20054;-77
2022/10/21 02:13:52;;;;;;;9.07;2.13;;;;;;;;;;4982949;28;20023;-77
2022/10/21 02:16:21;;;;;;;10.43;1.85;;;;;;;;;;4966078;28;20027;-78
2022/10/21 02:18:46;;;;;;;13.32;2.22;;;;;;;;;;4983182;28;20034;-77
2022/10/21 02:21:21;;;;;;;8.82;1.90;;;;;;;;;;4983497;28;20061;-77
2022/10/21 02:23:52;;;;;;;13.55;2.20;;;;;;;;;;4983134;28;20053;-78
2022/10/21 02:26:21;;;;;;;10.77;2.00;;;;;;;;;;4966363;28;20123;-77
2022/10/21 02:28:48;;;;;;;7.50;1.90;;;;;;;;;;4983545;28;20033;-77
2022/10/21 02:31:38;;;;;;;9.13;2.00;;;;;;;;;;4983346;28;20030;-77
2022/10/21 02:34:07;;;;;;;6.97;1.90;;;;;;;;;;4983622;28;20047;-77
2022/10/21 02:36:55;;;;;;;9.65;1.88;;;;;;;;;;4983252;28;20080;-77
2022/10/21 02:39:35;;;;;;;8.70;2.03;;;;;;;;;;4982969;28;20076;-77
2022/10/21 02:42:04;;;;;;;12.07;2.40;;;;;;;;;;4982507;28;20019;-77
2022/10/21 02:44:30;;;;;;;10.50;2.20;;;;;;;;;;4983109;28;20039;-77
2022/10/21 02:46:55;;;;;;;6.60;1.70;;;;;;;;;;4982463;28;20065;-77
2022/10/21 02:49:21;;;;;;;7.90;1.90;;;;;;;;;;4981994;28;20019;-77
2022/10/21 02:51:46;;;;;;;10.88;2.10;;;;;;;;;;4982199;28;20105;-77
2022/10/21 02:54:12;;;;;;;5.90;1.95;;;;;;;;;;4981884;28;20102;-78
2022/10/21 02:56:38;;;;;;;9.27;2.30;;;;;;;;;;4981776;28;20031;-77
2022/10/21 02:59:03;;;;;;;7.28;2.10;;;;;;;;;;4982110;28;20042;-77
2022/10/21 03:01:28;;;;;;;9.65;2.10;;;;;;;;;;4982239;28;20095;-77
2022/10/21 03:03:54;;;;;;;8.57;2.10;;;;;;;;;;4980671;28;20033;-77
2022/10/21 03:06:19;;;;;;;10.80;2.15;;;;;;;;;;4982055;28;20034;-77
2022/10/21 03:08:44;;;;;;;8.48;2.13;;;;;;;;;;4981802;28;20038;-77
2022/10/21 03:11:10;;;;;;;8.32;1.85;;;;;;;;;;4982907;28;20023;-77
2022/10/21 03:13:35;;;;;;;10.32;2.10;;;;;;;;;;4965666;28;20042;-77
2022/10/21 03:16:01;;;;;;;8.75;1.98;;;;;;;;;;4983245;28;20420;-77
2022/10/21 03:18:26;;;;;;;10.70;2.05;;;;;;;;;;4982705;28;20026;-77
2022/10/21 03:20:51;;;;;;;6.25;1.77;;;;;;;;;;4982681;28;20037;-77
2022/10/21 03:23:18;;;;;;;7.57;1.83;;;;;;;;;;4983112;28;20026;-77
2022/10/21 03:25:44;;;;;;;8.00;1.77;;;;;;;;;;4982995;28;20061;-77
2022/10/21 03:28:10;;;;;;;7.70;1.92;;;;;;;;;;4982852;28;20054;-77
2022/10/21 03:30:36;;;;;;;6.80;2.20;;;;;;;;;;4983108;28;20050;-77
2022/10/21 03:33:01;;;;;;;9.27;1.92;;;;;;;;;;4983096;28;20081;-77
2022/10/21 03:35:27;;;;;;;7.78;1.95;;;;;;;;;;4982685;28;20030;-77
2022/10/21 03:37:53;;;;;;;8.88;2.00;;;;;;;;;;4982848;28;20033;-77
2022/10/21 03:40:18;;;;;;;6.93;1.90;;;;;;;;;;4982654;28;20031;-77
2022/10/21 03:42:43;;;;;;;10.73;2.03;;;;;;;;;;4982849;28;20026;-77
2022/10/21 03:45:09;;;;;;;7.55;2.15;;;;;;;;;;4982710;28;20046;-78
2022/10/21 03:47:35;;;;;;;8.73;2.10;;;;;;;;;;4982869;28;20027;-77
2022/10/21 03:50:00;;;;;;;8.07;1.90;;;;;;;;;;4982739;28;20046;-77
2022/10/21 03:52:25;;;;;;;8.80;2.08;;;;;;;;;;4983024;28;20046;-77
2022/10/21 03:54:51;;;;;;;10.48;2.35;;;;;;;;;;4982642;28;20034;-77
2022/10/21 03:57:16;;;;;;;5.32;2.20;;;;;;;;;;4982590;28;20022;-77
2022/10/21 03:59:41;;;;;;;6.78;2.10;;;;;;;;;;4982324;28;20027;-78
2022/10/21 04:02:07;;;;;;;7.45;1.83;;;;;;;;;;4981598;28;20050;-77
2022/10/21 04:04:32;;;;;;;11.25;2.28;;;;;;;;;;4982518;28;20061;-78
2022/10/21 04:06:58;;;;;;;9.25;1.80;;;;;;;;;;4982332;28;20392;-77
2022/10/21 04:09:23;;;;;;;9.20;1.98;;;;;;;;;;4982478;28;20090;-77
2022/10/21 04:11:48;;;;;;;6.75;1.85;;;;;;;;;;4982559;28;20026;-77
2022/10/21 04:14:14;;;;;;;10.05;2.30;;;;;;;;;;4982491;28;20029;-77
2022/10/21 04:16:39;;;;;;;8.60;2.10;;;;;;;;;;4982698;28;20015;-77
2022/10/21 04:19:05;;;;;;;9.40;2.13;;;;;;;;;;4981852;28;20392;-77
2022/10/21 04:21:30;;;;;;;6.22;1.77;;;;;;;;;;4981012;28;20026;-77
2022/10/21 04:23:56;;;;;;;9.30;1.70;;;;;;;;;;4981425;28;20019;-77
2022/10/21 04:26:21;;;;;;;7.20;1.85;;;;;;;;;;4982347;28;20019;-77
2022/10/21 04:28:46;;;;;;;8.18;1.90;;;;;;;;;;4982113;28;20056;-78
2022/10/21 04:31:12;;;;;;;10.85;2.03;;;;;;;;;;4984840;28;20015;-77
2022/10/21 04:33:37;;;;;;;7.05;1.80;;;;;;;;;;4986359;28;20042;-78
2022/10/21 04:36:03;;;;;;;6.15;1.60;;;;;;;;;;4986096;28;20015;-77
2022/10/21 04:38:28;;;;;;;6.50;2.08;;;;;;;;;;4985852;28;20065;-77
2022/10/21 04:40:59;;;;;;;9.15;1.90;;;;;;;;;;4968793;28;20117;-78
2022/10/21 04:43:25;;;;;;;;;;;;;;;;;;4985676;28;20459;-77
2022/10/21 04:45:51;;;;;;;8.93;1.95;;;;;;;;;;4968730;28;20022;-77
2022/10/21 04:48:16;;;;;;;10.13;1.98;;;;;;;;;;4986054;28;20094;-77
2022/10/21 04:50:42;;;;;;;9.95;2.20;;;;;;;;;;4985735;28;20074;-77
2022/10/21 04:53:07;;;;;;;6.28;1.50;;;;;;;;;;4985918;28;20023;-77
2022/10/21 04:55:33;;;;;;;7.57;1.77;;;;;;;;;;4985709;28;20049;-77
2022/10/21 04:57:58;;;;;;;7.57;1.92;;;;;;;;;;4985537;28;20031;-77
2022/10/21 05:00:24;;;;;;;10.43;2.08;;;;;;;;;;4984035;28;20073;-77
2022/10/21 05:02:49;;;;;;;6.47;1.92;;;;;;;;;;4967642;28;20034;-77
2022/10/21 05:05:15;;;;;;;9.40;2.20;;;;;;;;;;4984554;28;20097;-77
2022/10/21 05:07:40;;;;;;;7.88;2.10;;;;;;;;;;4985724;28;20037;-77
2022/10/21 05:10:06;;;;;;;8.30;2.00;;;;;;;;;;4985263;28;20113;-77
2022/10/21 05:12:31;;;;;;;8.30;2.03;;;;;;;;;;4985489;28;20311;-77
2022/10/21 05:14:59;;;;;;;8.23;1.90;;;;;;;;;;4985340;28;20030;-77
2022/10/21 05:17:25;;;;;;;7.88;1.88;;;;;;;;;;4985482;28;20205;-77
2022/10/21 05:19:50;;;;;;;8.02;2.10;;;;;;;;;;4985071;28;20039;-77
2022/10/21 05:22:15;;;;;;;5.60;1.55;;;;;;;;;;4985368;28;20054;-77
2022/10/21 05:24:41;;;;;;;9.27;2.00;;;;;;;;;;4967981;28;20448;-77
2022/10/21 05:27:06;;;;;;;7.82;1.70;;;;;;;;;;4967894;28;20106;-76
2022/10/21 05:29:31;;;;;;;10.73;2.03;;;;;;;;;;4984900;28;20050;-75
2022/10/21 05:31:57;;;;;;;8.32;2.10;;;;;;;;;;4983812;28;20223;-77
2022/10/21 05:34:22;;;;;;;6.30;1.80;;;;;;;;;;4966431;28;20037;-76
2022/10/21 05:36:48;;;;;;;8.18;2.20;;;;;;;;;;4984494;28;20341;-76
2022/10/21 05:39:14;;;;;;;7.22;2.10;;;;;;;;;;4984606;28;20065;-82
2022/10/21 05:41:39;;;;;;;9.02;2.50;;;;;;;;;;4966433;28;20078;-79
2022/10/21 05:44:05;;;;;;;7.72;2.20;;;;;;;;;;4970205;28;20046;-81
2022/10/21 05:46:30;;;;;;;9.13;2.00;;;;;;;;;;4983069;28;20022;-80
2022/10/21 05:48:55;;;;;;;8.23;2.10;;;;;;;;;;4983590;28;20042;-78
2022/10/21 05:51:25;;;;;;;11.35;2.50;;;;;;;;;;4984534;28;20023;-80
2022/10/21 05:53:54;;;;;;;7.90;2.03;;;;;;;;;;4984431;28;20022;-76
2022/10/21 05:56:20;;;;;;;8.90;2.35;;;;;;;;;;4983482;28;20050;-76
2022/10/21 05:58:45;;;;;;;10.30;2.42;;;;;;;;;;4983705;28;20037;-74
2022/10/21 06:01:11;;;;;;;10.43;2.58;;;;;;;;;;4982894;28;20035;-75
2022/10/21 06:03:36;;;;;;;12.13;2.50;;;;;;;;;;4982883;28;20031;-75
2022/10/21 06:06:04;;;;;;;10.68;2.50;;;;;;;;;;4983072;28;20034;-76
2022/10/21 06:08:31;;;;;;;17.17;2.53;;;;;;;;;;4983503;28;20072;-74
2022/10/21 06:11:00;;;;;;;11.57;2.78;;;;;;;;;;4982984;28;20030;-76
2022/10/21 06:13:26;;;;;;;9.70;2.30;;;;;;;;;;4982950;28;20042;-79
2022/10/21 06:15:51;;;;;;;11.35;2.95;;;;;;;;;;4982630;28;20114;-74
2022/10/21 06:18:17;;;;;;;19.40;3.20;;;;;;;;;;4982364;28;20057;-76
2022/10/21 06:20:42;;;;;;;14.65;2.80;;;;;;;;;;4982603;28;20094;-75
2022/10/21 06:23:07;;;;;;;9.75;2.70;;;;;;;;;;4982696;28;20426;-78
2022/10/21 06:25:33;;;;;;;11.65;2.97;;;;;;;;;;4982641;28;20026;-77
2022/10/21 06:27:58;;;;;;;10.68;2.80;;;;;;;;;;4982779;28;20061;-78
2022/10/21 06:30:24;;;;;;;7.72;2.50;;;;;;;;;;4997219;28;20042;-77
2022/10/21 06:32:50;;;;;;;12.57;2.83;;;;;;;;;;4982603;28;20218;-75
2022/10/21 06:35:15;;;;;;;12.40;2.90;;;;;;;;;;4982561;28;20038;-75
2022/10/21 06:37:40;;;;;;;13.02;2.90;;;;;;;;;;4982230;28;20022;-83
2022/10/21 06:40:06;;;;;;;11.30;2.50;;;;;;;;;;4996081;28;20161;-79
2022/10/21 06:42:32;;;;;;;11.88;2.88;;;;;;;;;;4981164;28;20046;-82
2022/10/21 06:44:57;;;;;;;9.20;2.42;;;;;;;;;;4981552;28;20051;-77
2022/10/21 06:47:23;;;;;;;9.63;2.50;;;;;;;;;;4981944;28;20214;-79
2022/10/21 06:49:49;;;;;;;8.95;2.60;;;;;;;;;;4981955;28;20085;-78
2022/10/21 06:52:14;;;;;;;13.20;2.78;;;;;;;;;;4983084;28;20069;-78
2022/10/21 06:54:40;;;;;;;11.57;2.65;;;;;;;;;;4983237;28;20046;-78
2022/10/21 06:57:05;;;;;;;17.60;3.40;;;;;;;;;;4983128;28;20025;-79
2022/10/21 06:59:30;;;;;;;9.48;2.58;;;;;;;;;;4983205;28;20043;-80
2022/10/21 07:01:56;;;;;;;13.95;2.83;;;;;;;;;;4983083;28;20026;-79
2022/10/21 07:04:21;;;;;;;17.80;3.03;;;;;;;;;;4983207;28;20027;-80
2022/10/21 07:06:48;;;;;;;15.68;2.83;;;;;;;;;;4983017;28;20302;-80
2022/10/21 07:09:14;;;;;;;17.05;3.33;;;;;;;;;;4982853;28;20030;-80
2022/10/21 07:11:39;;;;;;;14.68;2.85;;;;;;;;;;4981927;28;20073;-80
2022/10/21 07:14:04;;;;;;;18.17;3.15;;;;;;;;;;4982917;28;20069;-80
2022/10/21 07:16:35;;;;;;;13.45;3.30;;;;;;;;;;4965254;28;20101;-79
2022/10/21 07:19:00;;;;;;;20.50;3.45;;;;;;;;;;4982811;28;20031;-81
2022/10/21 07:21:28;;;;;;;12.07;3.42;;;;;;;;;;4982458;28;20154;-81
2022/10/21 07:23:55;;;;;;;21.85;3.83;;;;;;;;;;4982892;28;20018;-80
2022/10/21 07:26:21;;;;;;;18.17;3.47;;;;;;;;;;4965246;28;20046;-79
2022/10/21 07:28:47;;;;;;;19.15;3.10;;;;;;;;;;4982730;28;20146;-78
2022/10/21 07:31:17;;;;;;;17.15;4.03;;;;;;;;;;4982713;28;20087;-79
2022/10/21 07:33:43;;;;;;;17.58;3.30;;;;;;;;;;4965661;28;20030;-78
2022/10/21 07:36:11;;;;;;;16.00;3.67;;;;;;;;;;4982825;28;20065;-78
2022/10/21 07:38:37;;;;;;;13.77;3.20;;;;;;;;;;4982852;28;20033;-79
2022/10/21 07:41:04;;;;;;;17.90;3.42;;;;;;;;;;4981483;28;20026;-79
2022/10/21 07:43:29;;;;;;;35.00;4.72;;;;;;;;;;4964539;28;20345;-79
2022/10/21 07:45:57;;;;;;;21.70;4.00;;;;;;;;;;4982404;28;20417;-81
2022/10/21 07:48:22;;;;;;;15.07;3.13;;;;;;;;;;4982517;28;20026;-76
2022/10/21 07:50:49;;;;;;;15.65;3.63;;;;;;;;;;4980479;28;20030;-78
2022/10/21 07:53:15;;;;;;;18.52;3.35;;;;;;;;;;4963999;28;20026;-79
2022/10/21 07:55:40;;;;;;;16.75;3.67;;;;;;;;;;4963952;28;20037;-79
2022/10/21 07:58:05;;;;;;;21.35;3.47;;;;;;;;;;4980526;28;20289;-79
2022/10/21 08:00:31;;;;;;;22.67;3.65;;;;;;;;;;4963549;28;20035;-77
2022/10/21 08:02:56;;;;;;;15.00;3.58;;;;;;;;;;4963513;28;20154;-77
2022/10/21 08:05:22;;;;;;;24.00;3.92;;;;;;;;;;4980548;28;20031;-78
2022/10/21 08:07:48;;;;;;;15.85;3.80;;;;;;;;;;4963489;28;20389;-76
2022/10/21 08:10:14;;;;;;;16.98;3.85;;;;;;;;;;4980677;28;20069;-82
2022/10/21 08:12:39;;;;;;;21.98;4.30;;;;;;;;;;4980420;28;20054;-77
2022/10/21 08:15:05;;;;;;;18.10;4.05;;;;;;;;;;4980730;28;20026;-77
2022/10/21 08:17:30;;;;;;;19.88;3.80;;;;;;;;;;4980504;28;20022;-75
2022/10/21 08:19:56;;;;;;;13.10;3.80;;;;;;;;;;4980639;28;20321;-81
2022/10/21 08:22:21;;;;;;;18.13;4.00;;;;;;;;;;4981376;28;20030;-81
2022/10/21 08:24:47;;;;;;;13.57;3.08;;;;;;;;;;4963746;28;20377;-75
2022/10/21 08:27:12;;;;;;;16.95;3.75;;;;;;;;;;4980712;28;20027;-76
2022/10/21 08:29:38;;;;;;;20.17;4.18;;;;;;;;;;4980593;28;20042;-76
2022/10/21 08:32:04;;;;;;;14.48;3.47;;;;;;;;;;4980448;28;20250;-77
2022/10/21 08:34:29;;;;;;;23.70;3.90;;;;;;;;;;4981131;28;20031;-78
2022/10/21 08:36:54;;;;;;;19.23;3.17;;;;;;;;;;4980628;28;20085;-76
2022/10/21 08:39:20;;;;;;;15.52;3.45;;;;;;;;;;4980636;28;20037;-77
2022/10/21 08:41:52;;;;;;;16.05;3.17;;;;;;;;;;4980486;28;20026;-77
2022/10/21 08:44:33;;;;;;;14.93;3.30;;;;;;;;;;4967676;28;20125;-76
2022/10/21 08:47:07;;;;;;;14.32;3.47;;;;;;;;;;4980240;28;20035;-77
2022/10/21 08:49:54;;;;;;;16.58;3.42;;;;;;;;;;4980410;28;20122;-76
2022/10/21 08:52:26;;;;;;;15.95;3.05;;;;;;;;;;4980515;28;20045;-76
2022/10/21 08:55:00;;;;;;;14.18;3.45;;;;;;;;;;4980984;28;20142;-76
2022/10/21 08:57:26;;;;;;;18.00;3.90;;;;;;;;;;4979945;28;20086;-74
2022/10/21 08:59:53;;;;;;;12.13;3.10;;;;;;;;;;4980269;28;20030;-75
2022/10/21 09:02:42;;;;;;;11.25;3.10;;;;;;;;;;4980740;28;20037;-75
2022/10/21 09:05:19;;;;;;;18.67;3.40;;;;;;;;;;4981575;28;20134;-75
2022/10/21 09:08:08;;;;;;;15.70;3.38;;;;;;;;;;4981499;28;20019;-75
2022/10/21 09:10:59;;;;;;;13.48;3.22;;;;;;;;;;4981879;28;20077;-76
2022/10/21 09:13:51;;;;;;;11.63;3.30;;;;;;;;;;4981542;28;20077;-76
2022/10/21 09:16:36;;;;;;;14.13;3.60;;;;;;;;;;4982544;28;20033;-76
2022/10/21 09:19:38;;;;;;;16.65;3.33;;;;;;;;;;4983413;28;20035;-76
2022/10/21 09:22:34;;;;;;;18.58;3.92;;;;;;;;;;4983630;28;20153;-75
2022/10/21 09:25:02;;;;;;;18.63;3.70;;;;;;;;;;4983951;28;20122;-75
2022/10/21 09:27:29;;;;;;;10.68;3.10;;;;;;;;;;4983920;28;20023;-76
2022/10/21 09:30:00;;;;;;;15.82;3.50;;;;;;;;;;4983781;28;20035;-76
2022/10/21 09:32:33;;;;;;;17.52;3.85;;;;;;;;;;4983516;28;20046;-76
2022/10/21 09:35:07;;;;;;;17.17;3.63;;;;;;;;;;4983679;28;20049;-75
2022/10/21 09:37:48;;;;;;;16.23;3.63;;;;;;;;;;4983294;28;20345;-76
2022/10/21 09:40:32;;;;;;;;;;;;;;;;;;4983788;28;20058;-75
2022/10/21 09:43:00;;;;;;;18.13;4.10;;;;;;;;;;4983520;28;19980;-75
2022/10/21 09:45:26;;;;;;;18.75;3.63;;;;;;;;;;4983088;28;20054;-76
2022/10/21 09:47:58;;;;;;;19.70;3.95;;;;;;;;;;4983670;28;20029;-76
2022/10/21 09:50:25;;;;;;;21.38;3.88;;;;;;;;;;4966173;28;20038;-75
2022/10/21 09:52:57;;;;;;;17.15;3.55;;;;;;;;;;4983175;28;20031;-75
2022/10/21 09:55:23;;;;;;;17.67;3.70;;;;;;;;;;4983205;28;20038;-76
2022/10/21 09:57:48;;;;;;;14.15;3.40;;;;;;;;;;4982821;28;20097;-75
2022/10/21 10:00:14;;;;;;;16.67;3.47;;;;;;;;;;4982522;28;20035;-76
2022/10/21 10:02:42;;;;;;;14.43;3.60;;;;;;;;;;4982454;28;20029;-75
2022/10/21 10:05:38;;;;;;;14.07;3.60;;;;;;;;;;4982502;28;20038;-77
2022/10/21 10:08:19;;;;;;;14.50;3.55;;;;;;;;;;4983559;28;20027;-85
2022/10/21 10:10:45;;;;;;;18.98;3.22;;;;;;;;;;4982849;28;20022;-76
2022/10/21 10:13:17;;;;;;;12.50;2.95;;;;;;;;;;4982560;28;20098;-84
2022/10/21 10:15:43;;;;;;;19.65;3.40;;;;;;;;;;4965725;28;20038;-85
2022/10/21 10:18:22;;;;;;;12.73;3.38;;;;;;;;;;4982426;28;20022;-75
2022/10/21 10:21:05;;;;;;;11.32;3.40;;;;;;;;;;4982289;28;20310;-74
2022/10/21 10:24:01;;;;;;;15.45;3.55;;;;;;;;;;4982963;28;20303;-77
2022/10/21 10:26:41;;;;;;;15.07;2.97;;;;;;;;;;4981972;28;20043;-79
2022/10/21 10:29:25;;;;;;;16.25;3.50;;;;;;;;;;4981818;28;20328;-78
2022/10/21 10:31:55;;;;;;;16.55;3.45;;;;;;;;;;4965437;28;20038;-78
2022/10/21 10:34:25;;;;;;;13.65;3.55;;;;;;;;;;4982058;28;20402;-78
2022/10/21 10:37:00;;;;;;;12.32;3.38;;;;;;;;;;4982244;28;20035;-78
2022/10/21 10:39:29;;;;;;;15.00;3.10;;;;;;;;;;4982271;28;20333;-80
2022/10/21 10:41:55;;;;;;;13.70;3.20;;;;;;;;;;4964385;28;20114;-81
2022/10/21 10:44:31;;;;;;;16.48;3.28;;;;;;;;;;4982016;28;20043;-84
2022/10/21 10:46:59;;;;;;;12.15;2.92;;;;;;;;;;4982419;28;20031;-81
2022/10/21 10:49:26;;;;;;;13.95;3.15;;;;;;;;;;4981920;28;20499;-77
2022/10/21 10:52:10;;;;;;;16.38;3.30;;;;;;;;;;4964518;28;20062;-77
2022/10/21 10:54:40;;;;;;;17.33;3.40;;;;;;;;;;4983061;28;20062;-78
2022/10/21 10:57:11;;;;;;;11.70;2.88;;;;;;;;;;4982362;28;20027;-78
2022/10/21 11:00:13;;;;;;;13.88;3.03;;;;;;;;;;4981886;28;20042;-79
2022/10/21 11:03:05;;;;;;;10.40;3.10;;;;;;;;;;4981692;28;20058;-79
2022/10/21 11:05:42;;;;;;;15.10;3.35;;;;;;;;;;4981909;28;20026;-79
2022/10/21 11:08:24;;;;;;;12.75;3.80;;;;;;;;;;4981371;28;20062;-79
2022/10/21 11:11:01;;;;;;;18.35;3.92;;;;;;;;;;4963831;28;20033;-79
2022/10/21 11:13:27;;;;;;;13.50;3.58;;;;;;;;;;4981569;28;20023;-79
2022/10/21 11:16:17;;;;;;;14.88;3.70;;;;;;;;;;4981121;28;20023;-80
2022/10/21 11:18:48;;;;;;;17.23;3.92;;;;;;;;;;4981277;28;20238;-79
2022/10/21 11:21:17;;;;;;;18.98;4.20;;;;;;;;;;4981179;28;20038;-78
2022/10/21 11:24:13;;;;;;;11.15;3.50;;;;;;;;;;4981630;28;20090;-79
2022/10/21 11:27:00;;;;;;;16.20;3.65;;;;;;;;;;4981288;28;20026;-79
2022/10/21 11:29:36;;;;;;;14.50;3.42;;;;;;;;;;4980900;28;20027;-79
2022/10/21 11:32:08;;;;;;;17.80;3.28;;;;;;;;;;4981377;28;20325;-80
2022/10/21 11:34:57;;;;;;;16.55;3.40;;;;;;;;;;4963891;28;20098;-80
2022/10/21 11:37:51;;;;;;;11.68;2.97;;;;;;;;;;4963713;28;20230;-79
2022/10/21 11:40:30;;;;;;;16.13;3.30;;;;;;;;;;4979718;28;20402;-80
2022/10/21 11:43:04;;;;;;;15.40;3.22;;;;;;;;;;4981764;28;20221;-80
2022/10/21 11:45:54;;;;;;;14.93;3.33;;;;;;;;;;4981231;28;20545;-80
2022/10/21 11:48:35;;;;;;;12.07;3.50;;;;;;;;;;4981202;28;20026;-80
2022/10/21 11:51:00;;;;;;;16.48;3.47;;;;;;;;;;4980824;28;20019;-79
2022/10/21 11:53:26;;;;;;;14.52;3.30;;;;;;;;;;4963711;28;20078;-79
2022/10/21 11:56:28;;;;;;;12.73;3.40;;;;;;;;;;4980623;28;20082;-80
2022/10/21 11:59:03;;;;;;;12.57;3.28;;;;;;;;;;4981069;28;20054;-80
2022/10/21 12:01:41;;;;;;;17.23;3.45;;;;;;;;;;4965096;28;20042;-81
2022/10/21 12:04:44;;;;;;;16.58;3.65;;;;;;;;;;4981287;28;20035;-80
2022/10/21 12:07:13;;;;;;;17.13;3.47;;;;;;;;;;4981813;28;20034;-79
2022/10/21 12:09:58;;;;;;;14.27;3.55;;;;;;;;;;4981465;28;20242;-80
2022/10/21 12:12:38;;;;;;;13.05;3.33;;;;;;;;;;4980516;28;20026;-81
2022/10/21 12:15:13;;;;;;;16.45;3.75;;;;;;;;;;4980447;28;20098;-82
2022/10/21 12:17:39;;;;;;;15.10;3.67;;;;;;;;;;4980449;28;20030;-79
2022/10/21 12:20:11;;;;;;;12.82;3.30;;;;;;;;;;4979319;28;20090;-81
2022/10/21 12:22:37;;;;;;;14.55;3.10;;;;;;;;;;4980851;28;20206;-78
2022/10/21 12:25:11;;;;;;;15.18;3.40;;;;;;;;;;4980850;28;20062;-82
2022/10/21 12:27:55;;;;;;;12.02;2.90;;;;;;;;;;4980498;28;20030;-79
2022/10/21 12:30:46;;;;;;;18.05;3.40;;;;;;;;;;4978730;28;20022;-81
2022/10/21 12:33:30;;;;;;;13.27;3.08;;;;;;;;;;4952184;28;20192;-81
2022/10/21 12:36:18;;;;;;;16.58;3.38;;;;;;;;;;4979316;28;20027;-77
2022/10/21 12:38:53;;;;;;;17.23;3.42;;;;;;;;;;4978655;28;20094;-83
2022/10/21 12:41:22;;;;;;;15.05;3.35;;;;;;;;;;4962467;28;20345;-84
2022/10/21 12:44:05;;;;;;;12.85;2.90;;;;;;;;;;4980892;28;20054;-85
2022/10/21 12:46:33;;;;;;;9.55;2.78;;;;;;;;;;4980772;28;20122;-80
2022/10/21 12:49:04;;;;;;;11.90;2.90;;;;;;;;;;4980986;28;20027;-84
2022/10/21 12:51:33;;;;;;;13.10;3.15;;;;;;;;;;4981677;28;20022;-85
2022/10/21 12:54:01;;;;;;;15.57;3.30;;;;;;;;;;4984790;28;20053;-81
2022/10/21 12:56:46;;;;;;;12.73;2.83;;;;;;;;;;4981252;28;20023;-81
2022/10/21 12:59:34;;;;;;;15.07;3.15;;;;;;;;;;4967105;28;20411;-83
2022/10/21 13:02:08;;;;;;;15.63;3.50;;;;;;;;;;4984052;28;20031;-84
2022/10/21 13:04:34;;;;;;;14.02;3.55;;;;;;;;;;4984235;28;20030;-81
2022/10/21 13:07:00;;;;;;;14.50;3.00;;;;;;;;;;4984497;28;20037;-81
2022/10/21 13:09:37;;;;;;;14.30;3.40;;;;;;;;;;4985410;28;20106;-78
2022/10/21 13:12:08;;;;;;;13.65;3.33;;;;;;;;;;4984151;28;20035;-81
2022/10/21 13:14:48;;;;;;;14.75;3.13;;;;;;;;;;4980903;28;20026;-81
2022/10/21 13:17:20;;;;;;;14.48;2.95;;;;;;;;;;4985400;28;20109;-81
2022/10/21 13:19:46;;;;;;;16.05;3.42;;;;;;;;;;4984405;28;20050;-82
2022/10/21 13:22:16;;;;;;;18.88;3.53;;;;;;;;;;4984232;28;20345;-82
2022/10/21 13:24:42;;;;;;;13.27;3.23;;;;;;;;;;4984338;28;20038;-82
2022/10/21 13:27:31;;;;;;;17.05;3.35;;;;;;;;;;4985090;28;20011;-80
2022/10/21 13:29:58;;;;;;;14.07;3.20;;;;;;;;;;4983015;28;20070;-80
2022/10/21 13:32:27;;;;;;;11.68;2.78;;;;;;;;;;4984002;28;20070;-80
2022/10/21 13:34:59;;;;;;;14.50;3.15;;;;;;;;;;4984311;28;20022;-79
2022/10/21 13:37:47;;;;;;;12.82;3.15;;;;;;;;;;4984026;28;20347;-80
2022/10/21 13:40:16;;;;;;;16.45;3.38;;;;;;;;;;4971759;28;20101;-79
2022/10/21 13:43:05;;;;;;;12.32;2.78;;;;;;;;;;4983015;28;20050;-80
2022/10/21 13:45:48;;;;;;;12.80;2.40;;;;;;;;;;4971941;28;20042;-83
2022/10/21 13:48:17;;;;;;;13.13;2.88;;;;;;;;;;4984398;28;20023;-82
2022/10/21 13:50:46;;;;;;;12.32;2.40;;;;;;;;;;4982883;28;20027;-83
2022/10/21 13:53:36;;;;;;;9.25;2.20;;;;;;;;;;4983774;28;20070;-83
2022/10/21 13:56:06;;;;;;;11.55;2.28;;;;;;;;;;4982927;28;20080;-84
2022/10/21 13:58:38;;;;;;;9.35;2.30;;;;;;;;;;4983385;28;20030;-78
2022/10/21 14:01:45;;;;;;;10.52;2.80;;;;;;;;;;4981749;28;20046;-77
2022/10/21 14:04:21;;;;;;;9.00;2.30;;;;;;;;;;4980737;28;20069;-77
2022/10/21 14:06:51;;;;;;;8.13;1.98;;;;;;;;;;4982939;28;20106;-77
2022/10/21 14:09:25;;;;;;;8.82;1.95;;;;;;;;;;4981981;28;20054;-77
2022/10/21 14:11:55;;;;;;;6.95;1.75;;;;;;;;;;4982798;28;20043;-78
2022/10/21 14:14:24;;;;;;;9.73;2.10;;;;;;;;;;4965183;28;20042;-77
2022/10/21 14:16:56;;;;;;;7.68;1.90;;;;;;;;;;4982356;28;20281;-78
2022/10/21 14:19:26;;;;;;;10.27;2.40;;;;;;;;;;4982331;28;20326;-78
2022/10/21 14:21:54;;;;;;;10.30;2.80;;;;;;;;;;4982266;28;20356;-78
2022/10/21 14:24:43;;;;;;;12.55;2.78;;;;;;;;;;4982409;28;20030;-77
2022/10/21 14:27:19;;;;;;;11.50;2.53;;;;;;;;;;4982852;28;20034;-77
2022/10/21 14:29:44;;;;;;;9.20;2.47;;;;;;;;;;4982055;28;20215;-78
2022/10/21 14:32:14;;;;;;;8.65;2.58;;;;;;;;;;4964555;28;20018;-78
2022/10/21 14:35:10;;;;;;;14.93;3.20;;;;;;;;;;4982636;28;20436;-77
2022/10/21 14:37:45;;;;;;;8.65;2.80;;;;;;;;;;4982262;28;20030;-78
2022/10/21 14:40:36;;;;;;;8.95;2.33;;;;;;;;;;4982970;28;20326;-77
2022/10/21 14:43:24;;;;;;;8.30;2.20;;;;;;;;;;4982878;28;20023;-78
2022/10/21 14:45:51;;;;;;;8.07;2.30;;;;;;;;;;4981426;28;20046;-78
2022/10/21 14:48:32;;;;;;;6.78;2.05;;;;;;;;;;4982347;28;20018;-78
2022/10/21 14:51:11;;;;;;;;;;;;;;;;;;4982634;28;20046;-78
2022/10/21 14:53:58;;;;;;;9.57;2.10;;;;;;;;;;4982222;28;20205;-78
2022/10/21 14:56:31;;;;;;;8.18;1.63;;;;;;;;;;4996877;28;20027;-77
2022/10/21 14:58:59;;;;;;;6.57;1.52;;;;;;;;;;4982080;28;20023;-78